Time,TemperatureF,DewpointF,PressureIn,WindDirection,WindDirectionDegrees,WindSpeedMPH,WindSpeedGustMPH,Humidity,HourlyPrecipIn,Conditions,Clouds,dailyrainin,SolarRadiationWatts/m^2,SoftwareType,DateUTC
2013-05-07 00:02:00,34.0,33.0,-100.00,SSW,197,4.0,6.0,96,0.00,,,0.27,0.000000,,2013-05-07 06:02:00,
2013-05-07 00:12:00,34.0,33.0,-100.00,SSW,197,4.0,6.0,96,0.00,,,0.27,0.000000,,2013-05-07 06:12:00,
2013-05-07 00:22:00,34.0,33.0,-100.00,SSW,197,4.0,6.0,96,0.00,,,0.27,0.000000,,2013-05-07 06:22:00,
2013-05-07 00:32:00,34.0,33.0,-100.00,SSW,197,4.0,6.0,96,0.00,,,0.27,0.000000,,2013-05-07 06:32:00,
2013-05-07 01:02:00,35.0,34.0,-100.00,NNW,333,3.0,6.0,96,0.00,,,0.27,0.000000,,2013-05-07 07:02:00,
2013-05-07 01:11:00,35.0,34.0,-100.00,NNW,333,3.0,6.0,96,0.00,,,0.27,0.000000,,2013-05-07 07:11:00,
2013-05-07 01:22:00,35.0,34.0,-100.00,NNW,333,3.0,6.0,96,0.00,,,0.27,0.000000,,2013-05-07 07:22:00,
2013-05-07 01:31:00,35.0,34.0,-100.00,NNW,333,3.0,6.0,96,0.00,,,0.27,0.000000,,2013-05-07 07:31:00,
2013-05-07 02:02:00,33.0,32.0,-100.00,SSW,197,2.0,6.0,96,0.00,,,0.27,0.000000,,2013-05-07 08:02:00,
2013-05-07 02:11:00,33.0,32.0,-100.00,SSW,197,2.0,6.0,96,0.00,,,0.27,0.000000,,2013-05-07 08:11:00,
2013-05-07 02:21:00,33.0,32.0,-100.00,SSW,197,2.0,6.0,96,0.00,,,0.27,0.000000,,2013-05-07 08:21:00,
2013-05-07 02:31:00,33.0,32.0,-100.00,SSW,197,2.0,6.0,96,0.00,,,0.27,0.000000,,2013-05-07 08:31:00,
2013-05-07 03:01:00,33.0,32.0,-100.00,NNW,338,2.0,4.0,96,0.00,,,0.27,0.000000,,2013-05-07 09:01:00,
2013-05-07 03:11:00,33.0,32.0,-100.00,NNW,338,2.0,4.0,96,0.00,,,0.27,0.000000,,2013-05-07 09:11:00,
2013-05-07 03:22:00,33.0,32.0,-100.00,NNW,338,2.0,4.0,96,0.00,,,0.27,0.000000,,2013-05-07 09:22:00,
2013-05-07 03:33:00,33.0,32.0,-100.00,NNW,338,2.0,4.0,96,0.00,,,0.27,0.000000,,2013-05-07 09:33:00,
2013-05-07 04:03:00,33.0,32.0,-100.00,SSW,203,1.0,5.0,97,0.00,,,0.27,0.000000,,2013-05-07 10:03:00,
2013-05-07 04:12:00,33.0,32.0,-100.00,SSW,203,1.0,5.0,97,0.00,,,0.27,0.000000,,2013-05-07 10:12:00,
2013-05-07 04:23:00,33.0,32.0,-100.00,SSW,203,1.0,5.0,97,0.00,,,0.27,0.000000,,2013-05-07 10:23:00,
2013-05-07 04:32:00,33.0,32.0,-100.00,SSW,203,1.0,5.0,97,0.00,,,0.27,0.000000,,2013-05-07 10:32:00,
2013-05-07 05:02:00,33.0,32.0,-100.00,NNW,347,3.0,10.0,97,0.00,,,0.27,0.000000,,2013-05-07 11:02:00,
2013-05-07 05:12:00,33.0,32.0,-100.00,NNW,347,3.0,10.0,97,0.00,,,0.27,0.000000,,2013-05-07 11:12:00,
2013-05-07 05:22:00,33.0,32.0,-100.00,NNW,347,3.0,10.0,97,0.00,,,0.27,0.000000,,2013-05-07 11:22:00,
2013-05-07 05:32:00,33.0,32.0,-100.00,NNW,347,3.0,10.0,97,0.00,,,0.27,0.000000,,2013-05-07 11:32:00,
2013-05-07 06:02:00,33.0,32.0,-100.00,NW,306,4.0,8.0,97,0.00,,,0.27,0.000000,,2013-05-07 12:02:00,
2013-05-07 06:11:00,33.0,32.0,-100.00,NW,306,4.0,8.0,97,0.00,,,0.27,0.000000,,2013-05-07 12:11:00,
2013-05-07 06:21:00,33.0,32.0,-100.00,NW,306,4.0,8.0,97,0.00,,,0.27,0.000000,,2013-05-07 12:21:00,
2013-05-07 06:32:00,33.0,32.0,-100.00,NW,306,4.0,8.0,97,0.00,,,0.27,0.000000,,2013-05-07 12:32:00,
2013-05-07 07:02:00,33.0,32.0,-100.00,WNW,287,4.0,11.0,96,0.00,,,0.27,5.000000,,2013-05-07 13:02:00,
2013-05-07 07:11:00,33.0,32.0,-100.00,WNW,287,4.0,11.0,96,0.00,,,0.27,5.000000,,2013-05-07 13:11:00,
2013-05-07 07:21:00,33.0,32.0,-100.00,WNW,287,4.0,11.0,96,0.00,,,0.27,5.000000,,2013-05-07 13:21:00,
2013-05-07 07:32:00,33.0,32.0,-100.00,WNW,287,4.0,11.0,96,0.00,,,0.27,5.000000,,2013-05-07 13:32:00,
2013-05-07 08:02:00,36.0,35.0,-100.00,WSW,246,5.0,13.0,95,0.00,,,0.27,50.000000,,2013-05-07 14:02:00,
2013-05-07 08:11:00,36.0,35.0,-100.00,WSW,246,5.0,13.0,95,0.00,,,0.27,50.000000,,2013-05-07 14:11:00,
2013-05-07 08:21:00,36.0,35.0,-100.00,WSW,246,5.0,13.0,95,0.00,,,0.27,50.000000,,2013-05-07 14:21:00,
2013-05-07 08:32:00,36.0,35.0,-100.00,WSW,246,5.0,13.0,95,0.00,,,0.27,50.000000,,2013-05-07 14:32:00,
2013-05-07 09:01:00,42.0,39.0,-100.00,NW,325,5.0,9.0,88,0.00,,,0.27,171.000000,,2013-05-07 15:01:00,
2013-05-07 09:12:00,42.0,39.0,-100.00,NW,325,5.0,9.0,88,0.00,,,0.27,171.000000,,2013-05-07 15:12:00,
2013-05-07 09:21:00,42.0,39.0,-100.00,NW,325,5.0,9.0,88,0.00,,,0.27,171.000000,,2013-05-07 15:21:00,
2013-05-07 09:33:00,42.0,39.0,-100.00,NW,325,5.0,9.0,88,0.00,,,0.27,171.000000,,2013-05-07 15:33:00,
2013-05-07 12:01:00,52.0,27.0,-100.00,North,355,9.0,20.0,38,-99.99,,,0.21,954.000000,,2013-05-07 18:01:00,
2013-05-07 12:11:00,52.0,27.0,-100.00,North,355,9.0,20.0,38,-99.99,,,0.21,954.000000,,2013-05-07 18:11:00,
2013-05-07 12:21:00,52.0,27.0,-100.00,North,355,9.0,20.0,38,-99.99,,,0.21,954.000000,,2013-05-07 18:21:00,
2013-05-07 12:31:00,52.0,27.0,-100.00,North,355,9.0,20.0,38,-99.99,,,0.21,954.000000,,2013-05-07 18:31:00,
2013-05-07 13:02:00,52.0,25.0,-100.00,WNW,295,11.0,21.0,35,0.00,,,0.21,826.000000,,2013-05-07 19:02:00,
2013-05-07 13:11:00,52.0,25.0,-100.00,WNW,295,11.0,21.0,35,0.00,,,0.21,826.000000,,2013-05-07 19:11:00,
2013-05-07 13:21:00,52.0,25.0,-100.00,WNW,295,11.0,21.0,35,0.00,,,0.21,826.000000,,2013-05-07 19:21:00,
2013-05-07 13:32:00,52.0,25.0,-100.00,WNW,295,11.0,21.0,35,0.00,,,0.21,826.000000,,2013-05-07 19:32:00,
2013-05-07 14:02:00,51.0,29.0,-100.00,SE,138,8.0,16.0,43,0.00,,,0.20,384.000000,,2013-05-07 20:02:00,
2013-05-07 14:12:00,51.0,29.0,-100.00,SE,138,8.0,16.0,43,0.00,,,0.20,384.000000,,2013-05-07 20:12:00,
2013-05-07 14:22:00,51.0,29.0,-100.00,SE,138,8.0,16.0,43,0.00,,,0.20,384.000000,,2013-05-07 20:22:00,
2013-05-07 14:32:00,51.0,29.0,-100.00,SE,138,8.0,16.0,43,0.00,,,0.20,384.000000,,2013-05-07 20:32:00,
2013-05-07 15:01:00,48.0,38.0,-100.00,NE,39,6.0,15.0,69,0.02,,,0.22,282.000000,,2013-05-07 21:01:00,
2013-05-07 15:11:00,48.0,38.0,-100.00,NE,39,6.0,15.0,69,0.02,,,0.22,282.000000,,2013-05-07 21:11:00,
2013-05-07 15:22:00,48.0,38.0,-100.00,NE,39,6.0,15.0,69,0.02,,,0.22,282.000000,,2013-05-07 21:22:00,
2013-05-07 15:32:00,48.0,38.0,-100.00,NE,39,6.0,15.0,69,0.02,,,0.22,282.000000,,2013-05-07 21:32:00,
2013-05-07 16:02:00,48.0,34.0,-100.00,North,360,2.0,13.0,59,0.01,,,0.23,234.000000,,2013-05-07 22:02:00,
2013-05-07 16:13:00,48.0,34.0,-100.00,North,360,2.0,13.0,59,0.01,,,0.23,234.000000,,2013-05-07 22:13:00,
2013-05-07 16:22:00,48.0,34.0,-100.00,North,360,2.0,13.0,59,0.01,,,0.23,234.000000,,2013-05-07 22:22:00,
2013-05-07 16:33:00,48.0,34.0,-100.00,North,360,2.0,13.0,59,0.01,,,0.23,234.000000,,2013-05-07 22:33:00,
2013-05-07 17:02:00,44.0,36.0,-100.00,NNW,331,13.0,20.0,74,0.00,,,0.23,221.000000,,2013-05-07 23:02:00,
2013-05-07 17:12:00,44.0,36.0,-100.00,NNW,331,13.0,20.0,74,0.00,,,0.23,221.000000,,2013-05-07 23:12:00,
2013-05-07 17:21:00,44.0,36.0,-100.00,NNW,331,13.0,20.0,74,0.00,,,0.23,221.000000,,2013-05-07 23:21:00,
2013-05-07 17:32:00,44.0,36.0,-100.00,NNW,331,13.0,20.0,74,0.00,,,0.23,221.000000,,2013-05-07 23:32:00,
2013-05-07 18:02:00,45.0,38.0,-100.00,NNW,348,10.0,19.0,76,0.01,,,0.24,156.000000,,2013-05-08 00:02:00,
2013-05-07 18:12:00,45.0,38.0,-100.00,NNW,348,10.0,19.0,76,0.01,,,0.24,156.000000,,2013-05-08 00:12:00,
2013-05-07 18:21:00,45.0,38.0,-100.00,NNW,348,10.0,19.0,76,0.01,,,0.24,156.000000,,2013-05-08 00:21:00,
2013-05-07 18:32:00,45.0,38.0,-100.00,NNW,348,10.0,19.0,76,0.01,,,0.24,156.000000,,2013-05-08 00:32:00,
2013-05-07 19:02:00,47.0,35.0,-100.00,NW,318,14.0,20.0,64,0.00,,,0.24,225.000000,,2013-05-08 01:02:00,
2013-05-07 19:11:00,47.0,35.0,-100.00,NW,318,14.0,20.0,64,0.00,,,0.24,225.000000,,2013-05-08 01:11:00,
2013-05-07 19:22:00,47.0,35.0,-100.00,NW,318,14.0,20.0,64,0.00,,,0.24,225.000000,,2013-05-08 01:22:00,
2013-05-07 19:32:00,47.0,35.0,-100.00,NW,318,14.0,20.0,64,0.00,,,0.24,225.000000,,2013-05-08 01:32:00,
2013-05-07 20:02:00,43.0,35.0,-100.00,WNW,299,12.0,23.0,72,0.00,,,0.23,60.000000,,2013-05-08 02:02:00,
2013-05-07 20:12:00,43.0,35.0,-100.00,WNW,299,12.0,23.0,72,0.00,,,0.23,60.000000,,2013-05-08 02:12:00,
2013-05-07 20:22:00,43.0,35.0,-100.00,WNW,299,12.0,23.0,72,0.00,,,0.23,60.000000,,2013-05-08 02:22:00,
2013-05-07 20:32:00,43.0,35.0,-100.00,WNW,299,12.0,23.0,72,0.00,,,0.23,60.000000,,2013-05-08 02:32:00,
2013-05-07 21:02:00,39.0,34.0,-100.00,NW,324,10.0,17.0,81,0.00,,,0.15,4.000000,,2013-05-08 03:02:00,
2013-05-07 21:11:00,39.0,34.0,-100.00,NW,324,10.0,17.0,81,0.00,,,0.15,4.000000,,2013-05-08 03:11:00,
2013-05-07 21:21:00,39.0,34.0,-100.00,NW,324,10.0,17.0,81,0.00,,,0.15,4.000000,,2013-05-08 03:21:00,
2013-05-07 21:32:00,39.0,34.0,-100.00,NW,324,10.0,17.0,81,0.00,,,0.15,4.000000,,2013-05-08 03:32:00,
2013-05-07 22:02:00,39.0,34.0,-100.00,North,358,11.0,15.0,81,0.00,,,0.06,0.000000,,2013-05-08 04:02:00,
2013-05-07 22:13:00,39.0,34.0,-100.00,North,358,11.0,15.0,81,0.00,,,0.06,0.000000,,2013-05-08 04:13:00,
2013-05-07 22:23:00,39.0,34.0,-100.00,North,358,11.0,15.0,81,0.00,,,0.06,0.000000,,2013-05-08 04:23:00,
2013-05-07 22:33:00,39.0,34.0,-100.00,North,358,11.0,15.0,81,0.00,,,0.06,0.000000,,2013-05-08 04:33:00,
2013-05-07 23:02:00,37.0,33.0,-100.00,NNW,340,9.0,17.0,84,0.00,,,0.04,0.000000,,2013-05-08 05:02:00,
2013-05-07 23:12:00,37.0,33.0,-100.00,NNW,340,9.0,17.0,84,0.00,,,0.04,0.000000,,2013-05-08 05:12:00,
2013-05-07 23:22:00,37.0,33.0,-100.00,NNW,340,9.0,17.0,84,0.00,,,0.04,0.000000,,2013-05-08 05:22:00,
2013-05-07 23:32:00,37.0,33.0,-100.00,NNW,340,9.0,17.0,84,0.00,,,0.04,0.000000,,2013-05-08 05:32:00,